Time;durP1;ratioP1;P1;durP2;ratioP2;P2;SDS_P1;SDS_P2;PMS_P1;PMS_P2;Temp;Humidity;BMP_temperature;BMP_pressure;BME280_temperature;BME280_humidity;BME280_pressure;Samples;Min_cycle;Max_cycle;Signal;HPM_P1;HPM_P2
2023/07/23 00:01:30;;;;;;;12.90;10.00;;;;;;;;;;5084800;27;20043;-75
2023/07/23 00:03:56;;;;;;;15.75;10.02;;;;;;;;;;5085672;27;20051;-77
2023/07/23 00:06:22;;;;;;;17.08;9.13;;;;;;;;;;5064981;27;20039;-78
2023/07/23 00:08:49;;;;;;;15.93;9.90;;;;;;;;;;5085202;27;20035;-78
2023/07/23 00:11:15;;;;;;;14.68;10.85;;;;;;;;;;5084075;27;20043;-78
2023/07/23 00:13:41;;;;;;;21.08;10.45;;;;;;;;;;5086643;27;20530;-78
2023/07/23 00:16:07;;;;;;;19.92;10.65;;;;;;;;;;5086980;27;20047;-79
2023/07/23 00:18:33;;;;;;;19.38;10.57;;;;;;;;;;5088341;27;20047;-79
2023/07/23 00:20:59;;;;;;;20.33;11.60;;;;;;;;;;5072332;27;20047;-79
2023/07/23 00:23:25;;;;;;;20.42;11.05;;;;;;;;;;5072548;27;21800;-79
2023/07/23 00:25:51;;;;;;;21.52;10.95;;;;;;;;;;5102394;27;20070;-79
2023/07/23 00:28:17;;;;;;;17.23;9.15;;;;;;;;;;5088414;27;20071;-79
2023/07/23 00:30:43;;;;;;;22.15;10.70;;;;;;;;;;5085568;27;20055;-81
2023/07/23 00:33:09;;;;;;;17.00;9.27;;;;;;;;;;5084876;27;20184;-79
2023/07/23 00:35:35;;;;;;;16.45;9.85;;;;;;;;;;5104187;27;20062;-80
2023/07/23 00:38:02;;;;;;;18.65;9.70;;;;;;;;;;5100991;27;20039;-80
2023/07/23 00:40:28;;;;;;;18.77;9.98;;;;;;;;;;5106424;27;20040;-79
2023/07/23 00:42:54;;;;;;;18.55;9.32;;;;;;;;;;5063426;27;20047;-79
2023/07/23 00:45:22;;;;;;;19.70;10.70;;;;;;;;;;5072157;27;20050;-79
2023/07/23 00:47:48;;;;;;;16.15;10.00;;;;;;;;;;5104489;27;20122;-79
2023/07/23 00:50:15;;;;;;;15.02;9.65;;;;;;;;;;5102517;27;20173;-79
2023/07/23 00:52:42;;;;;;;19.40;10.20;;;;;;;;;;5102570;27;20054;-79
2023/07/23 00:55:08;;;;;;;16.27;10.23;;;;;;;;;;5086217;27;20119;-78
2023/07/23 00:57:35;;;;;;;16.52;10.00;;;;;;;;;;5104517;27;20086;-79
2023/07/23 01:00:01;;;;;;;20.35;10.13;;;;;;;;;;5099173;27;20128;-80
2023/07/23 01:02:27;;;;;;;22.98;11.48;;;;;;;;;;5092895;27;20404;-80
2023/07/23 01:04:54;;;;;;;20.27;10.82;;;;;;;;;;5087018;27;20825;-80
2023/07/23 01:07:20;;;;;;;21.65;12.15;;;;;;;;;;5081765;27;20182;-80
2023/07/23 01:09:47;;;;;;;24.08;12.13;;;;;;;;;;5085627;27;20043;-80
2023/07/23 01:12:14;;;;;;;22.30;12.05;;;;;;;;;;5068399;27;20053;-82
2023/07/23 01:14:41;;;;;;;22.35;12.38;;;;;;;;;;5085831;27;20043;-80
2023/07/23 01:17:07;;;;;;;22.55;13.95;;;;;;;;;;5085167;27;20050;-80
2023/07/23 01:19:36;;;;;;;20.58;12.23;;;;;;;;;;5102628;27;20040;-80
2023/07/23 01:22:05;;;;;;;20.00;12.30;;;;;;;;;;5103691;27;20044;-80
2023/07/23 01:24:34;;;;;;;20.98;12.88;;;;;;;;;;5084650;27;20185;-79
2023/07/23 01:27:00;;;;;;;21.38;13.00;;;;;;;;;;5087957;27;20047;-79
2023/07/23 01:29:26;;;;;;;18.63;10.88;;;;;;;;;;5085355;27;20035;-80
2023/07/23 01:31:52;;;;;;;19.27;11.23;;;;;;;;;;5069534;27;20086;-80
2023/07/23 01:34:19;;;;;;;18.55;11.02;;;;;;;;;;5082656;27;20453;-79
2023/07/23 01:36:45;;;;;;;25.67;12.65;;;;;;;;;;5084206;27;20047;-80
2023/07/23 01:39:11;;;;;;;18.20;11.00;;;;;;;;;;5085580;27;20546;-79
2023/07/23 01:41:38;;;;;;;20.83;12.25;;;;;;;;;;5084829;27;20047;-79
2023/07/23 01:44:04;;;;;;;20.88;11.60;;;;;;;;;;5103605;27;20487;-80
2023/07/23 01:46:30;;;;;;;20.45;11.75;;;;;;;;;;5080792;27;20086;-80
2023/07/23 01:48:56;;;;;;;23.35;12.48;;;;;;;;;;5067061;27;20043;-79
2023/07/23 01:51:22;;;;;;;16.92;11.88;;;;;;;;;;5066364;27;20035;-78
2023/07/23 01:53:48;;;;;;;19.25;10.65;;;;;;;;;;5087061;27;20043;-78
2023/07/23 01:56:14;;;;;;;19.00;9.98;;;;;;;;;;5091262;27;20499;-78
2023/07/23 01:58:41;;;;;;;19.23;11.85;;;;;;;;;;5088603;27;20055;-79
2023/07/23 02:01:07;;;;;;;20.55;12.00;;;;;;;;;;5085116;27;20047;-79
2023/07/23 02:03:33;;;;;;;17.45;9.98;;;;;;;;;;5083130;27;20495;-79
2023/07/23 02:06:00;;;;;;;21.75;10.80;;;;;;;;;;5087461;27;20126;-77
2023/07/23 02:08:27;;;;;;;19.42;11.20;;;;;;;;;;5080905;27;20043;-78
2023/07/23 02:11:00;;;;;;;22.63;11.27;;;;;;;;;;5100452;27;20039;-79
2023/07/23 02:13:26;;;;;;;19.73;10.85;;;;;;;;;;5084772;27;20294;-78
2023/07/23 02:15:52;;;;;;;19.05;9.98;;;;;;;;;;5083148;27;20043;-79
2023/07/23 02:18:19;;;;;;;16.15;9.57;;;;;;;;;;5102123;27;20070;-78
2023/07/23 02:20:45;;;;;;;15.50;9.18;;;;;;;;;;5103082;27;20089;-79
2023/07/23 02:23:11;;;;;;;15.77;9.93;;;;;;;;;;5082559;27;20406;-78
2023/07/23 02:25:39;;;;;;;17.15;9.80;;;;;;;;;;5100023;27;20108;-78
2023/07/23 02:28:06;;;;;;;20.65;10.05;;;;;;;;;;5082536;28;20043;-78
2023/07/23 02:30:32;;;;;;;16.98;9.25;;;;;;;;;;5102549;27;20051;-78
2023/07/23 02:32:58;;;;;;;15.50;8.55;;;;;;;;;;5083399;27;20039;-79
2023/07/23 02:35:24;;;;;;;17.23;9.77;;;;;;;;;;5084273;27;20039;-79
2023/07/23 02:37:50;;;;;;;13.82;8.68;;;;;;;;;;5084799;27;20047;-79
2023/07/23 02:40:16;;;;;;;14.48;8.63;;;;;;;;;;5085670;27;20328;-79
2023/07/23 02:42:42;;;;;;;17.95;9.30;;;;;;;;;;5083817;28;20062;-79
2023/07/23 02:45:08;;;;;;;19.20;10.50;;;;;;;;;;5093764;27;20035;-80
2023/07/23 02:47:34;;;;;;;18.98;10.05;;;;;;;;;;5089428;28;20154;-79
2023/07/23 02:50:00;;;;;;;17.00;7.38;;;;;;;;;;5084717;27;20043;-79
2023/07/23 02:52:26;;;;;;;16.50;9.30;;;;;;;;;;5083486;28;20665;-81
2023/07/23 02:54:52;;;;;;;16.90;9.65;;;;;;;;;;5086429;28;20054;-80
2023/07/23 02:57:18;;;;;;;20.13;9.95;;;;;;;;;;5085391;28;20043;-81
2023/07/23 02:59:44;;;;;;;19.80;10.60;;;;;;;;;;5071375;28;20074;-82
2023/07/23 03:02:12;;;;;;;16.85;10.05;;;;;;;;;;5097668;28;20092;-82
2023/07/23 03:04:39;;;;;;;17.40;10.65;;;;;;;;;;5115790;27;20069;-81
2023/07/23 03:07:09;;;;;;;20.55;10.73;;;;;;;;;;5096916;28;20049;-81
2023/07/23 03:09:35;;;;;;;25.55;11.32;;;;;;;;;;5093994;28;20043;-81
2023/07/23 03:12:02;;;;;;;19.58;10.35;;;;;;;;;;5093240;28;20039;-81
2023/07/23 03:14:29;;;;;;;18.50;8.27;;;;;;;;;;5075899;28;20043;-80
2023/07/23 03:16:55;;;;;;;20.33;10.57;;;;;;;;;;5090808;28;20157;-81
2023/07/23 03:19:21;;;;;;;15.15;9.88;;;;;;;;;;5111253;27;20047;-80
2023/07/23 03:21:47;;;;;;;16.30;9.32;;;;;;;;;;5096299;27;21152;-81
2023/07/23 03:24:13;;;;;;;15.90;9.43;;;;;;;;;;5096070;27;20051;-80
2023/07/23 03:26:39;;;;;;;17.10;9.07;;;;;;;;;;5095491;27;20072;-80
2023/07/23 03:29:06;;;;;;;16.35;8.70;;;;;;;;;;5099654;27;20035;-81
2023/07/23 03:31:32;;;;;;;13.20;7.47;;;;;;;;;;5102976;27;20043;-79
2023/07/23 03:33:58;;;;;;;12.63;9.05;;;;;;;;;;5087954;27;20043;-80
2023/07/23 03:36:24;;;;;;;13.90;8.77;;;;;;;;;;5097644;27;20489;-80
2023/07/23 03:38:50;;;;;;;15.55;9.98;;;;;;;;;;5110114;27;20598;-81
2023/07/23 03:41:16;;;;;;;17.20;9.35;;;;;;;;;;5087037;27;20057;-81
2023/07/23 03:43:42;;;;;;;14.73;10.05;;;;;;;;;;5057697;27;20043;-81
2023/07/23 03:46:08;;;;;;;16.63;9.48;;;;;;;;;;5086629;27;20035;-80
2023/07/23 03:48:34;;;;;;;17.10;9.95;;;;;;;;;;5088276;27;20034;-81
2023/07/23 03:51:01;;;;;;;15.02;9.23;;;;;;;;;;5087190;27;21610;-81
2023/07/23 03:53:27;;;;;;;20.20;9.82;;;;;;;;;;5089306;27;20134;-81
2023/07/23 03:55:53;;;;;;;14.10;8.90;;;;;;;;;;5089484;27;20509;-81
2023/07/23 03:58:19;;;;;;;21.52;9.77;;;;;;;;;;5083472;27;20698;-81
2023/07/23 04:00:45;;;;;;;18.95;10.63;;;;;;;;;;5084440;28;20502;-81
2023/07/23 04:03:11;;;;;;;15.20;10.20;;;;;;;;;;5082957;27;20419;-81
2023/07/23 04:05:37;;;;;;;17.02;9.98;;;;;;;;;;5070307;28;20344;-82
2023/07/23 04:08:03;;;;;;;16.98;10.82;;;;;;;;;;5086030;27;20039;-82
2023/07/23 04:10:29;;;;;;;17.77;11.23;;;;;;;;;;5064831;28;20059;-83
2023/07/23 04:12:55;;;;;;;18.92;9.77;;;;;;;;;;5084053;27;20100;-83
2023/07/23 04:15:22;;;;;;;18.08;11.23;;;;;;;;;;5085931;28;20138;-82
2023/07/23 04:17:48;;;;;;;23.35;10.77;;;;;;;;;;5088005;28;20058;-82
2023/07/23 04:20:14;;;;;;;19.33;12.50;;;;;;;;;;5075305;28;20051;-84
2023/07/23 04:22:40;;;;;;;18.08;11.85;;;;;;;;;;5085345;28;20043;-74
2023/07/23 04:25:06;;;;;;;15.27;9.93;;;;;;;;;;5083518;28;20075;-74
2023/07/23 04:27:32;;;;;;;14.98;9.18;;;;;;;;;;5081446;27;20051;-74
2023/07/23 04:29:58;;;;;;;20.52;12.35;;;;;;;;;;5082794;28;21490;-74
2023/07/23 04:32:24;;;;;;;18.42;11.60;;;;;;;;;;5085759;28;20300;-74
2023/07/23 04:34:50;;;;;;;20.17;12.30;;;;;;;;;;5083457;28;20039;-75
2023/07/23 04:37:17;;;;;;;20.05;11.88;;;;;;;;;;5082067;28;20505;-74
2023/07/23 04:39:43;;;;;;;17.23;11.38;;;;;;;;;;5082605;28;20058;-74
2023/07/23 04:42:09;;;;;;;20.10;12.20;;;;;;;;;;5083054;28;20047;-73
2023/07/23 04:44:35;;;;;;;17.10;10.93;;;;;;;;;;5081100;28;20048;-74
2023/07/23 04:47:01;;;;;;;20.00;10.65;;;;;;;;;;5081073;28;20035;-74
2023/07/23 04:49:27;;;;;;;17.27;10.98;;;;;;;;;;5084977;28;20058;-73
2023/07/23 04:51:53;;;;;;;18.73;10.18;;;;;;;;;;5080855;28;20048;-73
2023/07/23 04:54:19;;;;;;;23.00;11.82;;;;;;;;;;5075717;28;20043;-74
2023/07/23 04:56:46;;;;;;;16.67;10.45;;;;;;;;;;5084148;27;20059;-74
2023/07/23 04:59:12;;;;;;;21.27;11.57;;;;;;;;;;5102074;27;20154;-74
2023/07/23 05:01:38;;;;;;;21.20;11.15;;;;;;;;;;5082136;27;20043;-74
2023/07/23 05:04:04;;;;;;;20.48;11.48;;;;;;;;;;5099610;27;20078;-74
2023/07/23 05:06:31;;;;;;;20.75;11.45;;;;;;;;;;5082009;27;20035;-74
2023/07/23 05:08:57;;;;;;;21.70;11.05;;;;;;;;;;5066091;27;20039;-74
2023/07/23 05:11:23;;;;;;;16.50;10.40;;;;;;;;;;5101374;27;20057;-74
2023/07/23 05:13:49;;;;;;;18.52;10.48;;;;;;;;;;5082210;27;20038;-74
2023/07/23 05:16:15;;;;;;;22.67;12.82;;;;;;;;;;5081007;27;20173;-74
2023/07/23 05:18:41;;;;;;;17.35;11.05;;;;;;;;;;5067126;27;20138;-75
2023/07/23 05:21:07;;;;;;;19.23;11.95;;;;;;;;;;5065743;27;20865;-73
2023/07/23 05:23:33;;;;;;;20.35;11.52;;;;;;;;;;5069558;27;20046;-74
2023/07/23 05:25:59;;;;;;;15.75;11.38;;;;;;;;;;5080177;27;20127;-75
2023/07/23 05:28:26;;;;;;;21.33;10.95;;;;;;;;;;5081139;27;20049;-74
2023/07/23 05:30:57;;;;;;;24.40;12.50;;;;;;;;;;5080215;27;20046;-74
2023/07/23 05:33:23;;;;;;;25.70;12.93;;;;;;;;;;5066067;27;20527;-74
2023/07/23 05:35:49;;;;;;;18.10;11.63;;;;;;;;;;5068484;27;20305;-75
2023/07/23 05:38:15;;;;;;;18.00;12.00;;;;;;;;;;5100768;27;20044;-74
2023/07/23 05:40:41;;;;;;;21.58;12.60;;;;;;;;;;5083115;27;20589;-82
2023/07/23 05:43:08;;;;;;;22.00;12.40;;;;;;;;;;5078849;27;20039;-82
2023/07/23 05:45:35;;;;;;;20.83;12.45;;;;;;;;;;5095517;27;20072;-81
2023/07/23 05:48:01;;;;;;;26.50;13.98;;;;;;;;;;5085124;27;20043;-82
2023/07/23 05:50:27;;;;;;;22.60;14.02;;;;;;;;;;5071395;27;20131;-83
2023/07/23 05:52:53;;;;;;;21.88;14.55;;;;;;;;;;5086942;27;20043;-84
2023/07/23 05:55:19;;;;;;;29.20;15.43;;;;;;;;;;5086072;28;20047;-83
2023/07/23 05:57:45;;;;;;;28.08;14.02;;;;;;;;;;5084062;27;20090;-82
2023/07/23 06:00:12;;;;;;;23.48;15.40;;;;;;;;;;5081032;27;20871;-83
2023/07/23 06:02:38;;;;;;;27.73;15.82;;;;;;;;;;5080156;27;20185;-82
2023/07/23 06:05:04;;;;;;;23.85;15.30;;;;;;;;;;5083930;27;20043;-83
2023/07/23 06:07:30;;;;;;;24.30;14.80;;;;;;;;;;5083073;27;20039;-83
2023/07/23 06:09:56;;;;;;;28.85;16.95;;;;;;;;;;5083121;28;20088;-81
2023/07/23 06:12:22;;;;;;;26.52;15.40;;;;;;;;;;5080568;27;20138;-82
2023/07/23 06:14:48;;;;;;;29.95;16.58;;;;;;;;;;5064069;28;20042;-83
2023/07/23 06:17:14;;;;;;;26.10;16.30;;;;;;;;;;5087156;27;20120;-81
2023/07/23 06:19:40;;;;;;;31.67;16.88;;;;;;;;;;5084082;27;20503;-82
2023/07/23 06:22:07;;;;;;;30.27;17.48;;;;;;;;;;5100249;27;20035;-83
2023/07/23 06:24:33;;;;;;;25.17;15.85;;;;;;;;;;5082848;28;20767;-84
2023/07/23 06:26:59;;;;;;;27.60;15.82;;;;;;;;;;5084937;27;20070;-83
2023/07/23 06:29:26;;;;;;;28.42;16.85;;;;;;;;;;5055759;27;20047;-81
2023/07/23 06:31:52;;;;;;;31.00;18.00;;;;;;;;;;5086618;27;20507;-81
2023/07/23 06:34:19;;;;;;;27.95;15.50;;;;;;;;;;5101793;27;21187;-82
2023/07/23 06:36:45;;;;;;;29.10;17.02;;;;;;;;;;5086303;28;20391;-83
2023/07/23 06:39:12;;;;;;;28.48;15.95;;;;;;;;;;5066006;27;20139;-83
2023/07/23 06:41:38;;;;;;;29.42;16.25;;;;;;;;;;5048590;27;20089;-82
2023/07/23 06:44:04;;;;;;;30.67;15.98;;;;;;;;;;5080719;28;20632;-82
2023/07/23 06:46:30;;;;;;;24.65;14.52;;;;;;;;;;5067850;27;20035;-81
2023/07/23 06:48:56;;;;;;;21.38;14.48;;;;;;;;;;5101838;27;20040;-82
2023/07/23 06:51:22;;;;;;;19.05;13.93;;;;;;;;;;5085607;28;20050;-82
2023/07/23 06:53:49;;;;;;;25.08;14.95;;;;;;;;;;5086261;27;20122;-81
2023/07/23 06:56:16;;;;;;;24.80;14.50;;;;;;;;;;5090234;27;20050;-76
2023/07/23 06:58:43;;;;;;;23.52;14.00;;;;;;;;;;5091067;27;20895;-74
2023/07/23 07:01:09;;;;;;;22.75;14.60;;;;;;;;;;5088898;27;20051;-74
2023/07/23 07:03:36;;;;;;;20.98;14.18;;;;;;;;;;5102352;27;20049;-75
2023/07/23 07:06:03;;;;;;;24.67;14.65;;;;;;;;;;5066258;27;20123;-76
2023/07/23 07:08:29;;;;;;;21.65;13.20;;;;;;;;;;5084067;27;20558;-75
2023/07/23 07:10:58;;;;;;;24.58;14.30;;;;;;;;;;5072045;27;20035;-76
2023/07/23 07:13:25;;;;;;;21.25;13.68;;;;;;;;;;5087758;27;20054;-76
2023/07/23 07:15:51;;;;;;;17.92;12.82;;;;;;;;;;5085697;27;20088;-76
2023/07/23 07:18:17;;;;;;;26.15;12.35;;;;;;;;;;5096501;27;20062;-76
2023/07/23 07:20:52;;;;;;;21.90;13.77;;;;;;;;;;5066605;27;20138;-76
2023/07/23 07:23:18;;;;;;;20.75;12.98;;;;;;;;;;5104183;27;20307;-75
2023/07/23 07:25:45;;;;;;;17.65;12.27;;;;;;;;;;5084861;27;20047;-76
2023/07/23 07:28:11;;;;;;;19.63;13.30;;;;;;;;;;5073771;27;20035;-75
2023/07/23 07:30:40;;;;;;;23.60;12.93;;;;;;;;;;5088332;27;20700;-75
2023/07/23 07:33:06;;;;;;;17.35;11.50;;;;;;;;;;5087483;27;20050;-75
2023/07/23 07:35:32;;;;;;;20.60;12.70;;;;;;;;;;5063941;27;20494;-75
2023/07/23 07:37:58;;;;;;;18.42;12.20;;;;;;;;;;5089118;27;20054;-76
2023/07/23 07:40:25;;;;;;;19.85;12.75;;;;;;;;;;5070993;27;20101;-74
2023/07/23 07:42:51;;;;;;;16.92;11.75;;;;;;;;;;5088770;27;20047;-74
2023/07/23 07:45:17;;;;;;;16.83;11.60;;;;;;;;;;5086434;27;20158;-76
2023/07/23 07:47:44;;;;;;;20.52;12.90;;;;;;;;;;5086315;27;20062;-76
2023/07/23 07:50:10;;;;;;;20.35;14.68;;;;;;;;;;5070014;27;20558;-76
2023/07/23 07:52:36;;;;;;;27.67;14.05;;;;;;;;;;5086255;27;20039;-75
2023/07/23 07:55:02;;;;;;;23.55;14.68;;;;;;;;;;5070716;27;20074;-76
2023/07/23 07:57:29;;;;;;;26.95;13.70;;;;;;;;;;5084437;27;20082;-75
2023/07/23 07:59:55;;;;;;;20.75;13.40;;;;;;;;;;5063238;27;20046;-75
2023/07/23 08:02:21;;;;;;;33.05;14.45;;;;;;;;;;5082464;27;20043;-76
2023/07/23 08:04:48;;;;;;;26.13;14.52;;;;;;;;;;5084296;27;20043;-75
2023/07/23 08:07:14;;;;;;;27.98;15.00;;;;;;;;;;5079951;27;20475;-75
2023/07/23 08:09:42;;;;;;;24.55;14.18;;;;;;;;;;5081444;27;20039;-74
2023/07/23 08:12:09;;;;;;;24.60;13.18;;;;;;;;;;5086939;27;20203;-74
2023/07/23 08:14:38;;;;;;;23.73;12.63;;;;;;;;;;5072597;27;20053;-75
2023/07/23 08:17:04;;;;;;;30.52;15.85;;;;;;;;;;5105037;27;20495;-75
2023/07/23 08:19:30;;;;;;;26.70;13.55;;;;;;;;;;5082451;27;20050;-75
2023/07/23 08:21:57;;;;;;;26.75;15.20;;;;;;;;;;5081132;27;20494;-76
2023/07/23 08:24:23;;;;;;;24.52;14.98;;;;;;;;;;5082377;27;20043;-74
2023/07/23 08:26:50;;;;;;;24.70;13.30;;;;;;;;;;5065500;27;20043;-76
2023/07/23 08:29:18;;;;;;;28.00;14.30;;;;;;;;;;5083156;27;20079;-75
2023/07/23 08:31:44;;;;;;;24.50;13.80;;;;;;;;;;5083139;27;20089;-76
2023/07/23 08:34:10;;;;;;;26.25;13.48;;;;;;;;;;5085687;27;20039;-77
2023/07/23 08:36:36;;;;;;;29.63;14.57;;;;;;;;;;5090368;27;20043;-76
2023/07/23 08:39:04;;;;;;;30.98;13.10;;;;;;;;;;5072146;27;20049;-76
2023/07/23 08:41:37;;;;;;;28.60;14.63;;;;;;;;;;5085079;27;20372;-76
2023/07/23 08:44:07;;;;;;;32.17;15.23;;;;;;;;;;5067506;27;20181;-77
2023/07/23 08:46:35;;;;;;;26.63;15.15;;;;;;;;;;5079976;27;20305;-76
2023/07/23 08:49:06;;;;;;;25.80;15.27;;;;;;;;;;5081447;27;20043;-76
2023/07/23 08:51:32;;;;;;;25.08;13.90;;;;;;;;;;5085348;27;20148;-75
2023/07/23 08:53:58;;;;;;;22.90;14.30;;;;;;;;;;5081503;27;20051;-75
2023/07/23 08:56:24;;;;;;;24.08;14.05;;;;;;;;;;5101619;27;20082;-76
2023/07/23 08:58:51;;;;;;;19.95;12.73;;;;;;;;;;5100675;27;20070;-76
2023/07/23 09:01:17;;;;;;;18.63;13.52;;;;;;;;;;5080112;27;20079;-76
2023/07/23 09:03:43;;;;;;;18.90;13.45;;;;;;;;;;5066617;27;20048;-76
2023/07/23 09:06:10;;;;;;;19.00;13.18;;;;;;;;;;5082721;27;20035;-77
2023/07/23 09:08:37;;;;;;;18.65;11.98;;;;;;;;;;5076946;27;20039;-77
2023/07/23 09:11:09;;;;;;;16.55;11.85;;;;;;;;;;5083191;27;20091;-77
2023/07/23 09:13:37;;;;;;;20.60;13.43;;;;;;;;;;5066674;27;20377;-77
2023/07/23 09:16:06;;;;;;;19.73;12.73;;;;;;;;;;5082774;27;20725;-75
2023/07/23 09:18:38;;;;;;;14.52;10.68;;;;;;;;;;5083543;27;20063;-76
2023/07/23 09:21:04;;;;;;;19.02;12.23;;;;;;;;;;5083633;27;20367;-76
2023/07/23 09:23:30;;;;;;;16.63;11.80;;;;;;;;;;5062192;27;20586;-75
2023/07/23 09:25:59;;;;;;;18.55;12.45;;;;;;;;;;5067197;27;20039;-76
2023/07/23 09:28:26;;;;;;;15.48;11.00;;;;;;;;;;5094461;27;20092;-76
2023/07/23 09:30:59;;;;;;;15.20;11.07;;;;;;;;;;5082687;27;20483;-76
2023/07/23 09:33:30;;;;;;;15.52;11.48;;;;;;;;;;5081196;27;20042;-77
2023/07/23 09:36:00;;;;;;;18.63;12.10;;;;;;;;;;5081991;27;20058;-77
2023/07/23 09:38:28;;;;;;;11.88;8.88;;;;;;;;;;5083291;27;20501;-78
2023/07/23 09:40:54;;;;;;;15.73;11.27;;;;;;;;;;5070309;27;20054;-78
2023/07/23 09:43:24;;;;;;;13.57;9.20;;;;;;;;;;5081086;27;20047;-77
2023/07/23 09:45:51;;;;;;;18.52;10.52;;;;;;;;;;5081631;27;20031;-76
2023/07/23 09:48:18;;;;;;;19.35;12.98;;;;;;;;;;5081195;27;20556;-75
2023/07/23 09:50:45;;;;;;;20.15;13.13;;;;;;;;;;5080455;27;20074;-76
2023/07/23 09:53:15;;;;;;;21.08;13.73;;;;;;;;;;5083109;27;20046;-75
2023/07/23 09:55:42;;;;;;;14.48;10.60;;;;;;;;;;5082626;27;20043;-78
2023/07/23 09:58:09;;;;;;;18.17;9.88;;;;;;;;;;5065758;27;20059;-78
2023/07/23 10:00:36;;;;;;;13.98;10.10;;;;;;;;;;5097322;27;20479;-79
2023/07/23 10:03:04;;;;;;;19.83;12.48;;;;;;;;;;5079795;27;20044;-78
2023/07/23 10:05:30;;;;;;;15.52;10.77;;;;;;;;;;5082549;28;20043;-78
2023/07/23 10:07:57;;;;;;;16.73;10.20;;;;;;;;;;5084420;27;20742;-78
2023/07/23 10:10:23;;;;;;;15.75;10.95;;;;;;;;;;5080814;27;20055;-78
2023/07/23 10:12:50;;;;;;;18.55;12.05;;;;;;;;;;5073973;27;20782;-78
2023/07/23 10:15:16;;;;;;;12.40;10.00;;;;;;;;;;5083854;27;20043;-76
2023/07/23 10:17:47;;;;;;;15.20;10.05;;;;;;;;;;5105328;27;20111;-77
2023/07/23 10:20:17;;;;;;;14.65;8.45;;;;;;;;;;5084795;27;20042;-77
2023/07/23 10:22:46;;;;;;;15.93;9.65;;;;;;;;;;5080516;27;20403;-78
2023/07/23 10:25:25;;;;;;;15.10;9.98;;;;;;;;;;5081488;27;20047;-76
2023/07/23 10:27:59;;;;;;;15.02;10.00;;;;;;;;;;5057814;27;21222;-79
2023/07/23 10:30:25;;;;;;;16.33;11.45;;;;;;;;;;5082636;27;20043;-81
2023/07/23 10:33:10;;;;;;;16.75;11.27;;;;;;;;;;5079236;27;20043;-79
2023/07/23 10:35:54;;;;;;;15.27;11.68;;;;;;;;;;5069098;28;20738;-80
2023/07/23 10:38:25;;;;;;;14.32;10.68;;;;;;;;;;5107585;27;20046;-79
2023/07/23 10:40:51;;;;;;;20.20;13.30;;;;;;;;;;5089830;28;20050;-79
2023/07/23 10:43:18;;;;;;;17.75;12.23;;;;;;;;;;5075432;28;20050;-79
2023/07/23 10:46:03;;;;;;;16.25;11.35;;;;;;;;;;5089515;28;20167;-81
2023/07/23 10:48:39;;;;;;;20.67;12.93;;;;;;;;;;5073057;28;20490;-80
2023/07/23 10:51:09;;;;;;;18.15;12.07;;;;;;;;;;5088613;28;20069;-79
2023/07/23 10:53:40;;;;;;;17.20;11.50;;;;;;;;;;5088290;27;20078;-78
2023/07/23 10:56:21;;;;;;;16.60;10.98;;;;;;;;;;5073542;27;20054;-80
2023/07/23 10:58:47;;;;;;;17.55;10.50;;;;;;;;;;5085485;28;20149;-79
2023/07/23 11:01:13;;;;;;;14.55;10.35;;;;;;;;;;5085671;28;20070;-79
2023/07/23 11:03:43;;;;;;;18.85;8.20;;;;;;;;;;5087578;28;20044;-79
2023/07/23 11:06:25;;;;;;;14.98;10.82;;;;;;;;;;5087023;28;20721;-79
2023/07/23 11:08:51;;;;;;;11.88;8.10;;;;;;;;;;5090087;28;20046;-80
2023/07/23 11:11:17;;;;;;;12.70;8.20;;;;;;;;;;5085317;28;20795;-79
2023/07/23 11:13:43;;;;;;;11.45;9.15;;;;;;;;;;5070542;28;20039;-81
2023/07/23 11:16:10;;;;;;;12.02;9.18;;;;;;;;;;5085545;28;20783;-79
2023/07/23 11:18:36;;;;;;;11.07;7.90;;;;;;;;;;5068157;28;20059;-80
2023/07/23 11:21:04;;;;;;;9.55;7.22;;;;;;;;;;5071092;28;20192;-79
2023/07/23 11:23:31;;;;;;;12.23;8.90;;;;;;;;;;5063198;28;20138;-80
2023/07/23 11:25:57;;;;;;;15.52;9.60;;;;;;;;;;5064570;28;20036;-80
2023/07/23 11:28:23;;;;;;;12.82;8.80;;;;;;;;;;5086602;28;20156;-80
2023/07/23 11:30:50;;;;;;;11.43;9.05;;;;;;;;;;5071245;28;20092;-79
2023/07/23 11:33:16;;;;;;;13.60;8.90;;;;;;;;;;5048589;28;20048;-79
2023/07/23 11:35:44;;;;;;;13.10;9.00;;;;;;;;;;5071588;28;20047;-81
2023/07/23 11:38:10;;;;;;;12.35;9.05;;;;;;;;;;5084818;28;20047;-80
2023/07/23 11:40:36;;;;;;;12.98;8.10;;;;;;;;;;5072155;28;20047;-81
2023/07/23 11:43:06;;;;;;;12.10;8.30;;;;;;;;;;5104632;27;20554;-81
2023/07/23 11:45:32;;;;;;;11.55;7.97;;;;;;;;;;5085788;28;20094;-80
2023/07/23 11:47:58;;;;;;;14.15;8.80;;;;;;;;;;5089823;28;20035;-81
2023/07/23 11:50:25;;;;;;;10.55;8.13;;;;;;;;;;5076402;28;20108;-83
2023/07/23 11:52:52;;;;;;;10.93;7.30;;;;;;;;;;5090502;28;20127;-82
2023/07/23 11:55:27;;;;;;;12.82;8.88;;;;;;;;;;5075176;28;20385;-81
2023/07/23 11:57:57;;;;;;;12.25;8.60;;;;;;;;;;5075958;28;20572;-82
2023/07/23 12:00:25;;;;;;;10.15;6.78;;;;;;;;;;5088782;28;20047;-82
2023/07/23 12:02:51;;;;;;;12.63;8.20;;;;;;;;;;5074950;28;20043;-83
2023/07/23 12:05:17;;;;;;;14.52;7.90;;;;;;;;;;5090807;28;21100;-82
2023/07/23 12:07:44;;;;;;;12.82;8.93;;;;;;;;;;5073831;28;20067;-83
2023/07/23 12:10:12;;;;;;;11.52;7.78;;;;;;;;;;5088034;28;20495;-83
2023/07/23 12:12:38;;;;;;;9.60;7.00;;;;;;;;;;5087918;28;20036;-83
2023/07/23 12:15:05;;;;;;;9.63;7.38;;;;;;;;;;5089460;28;20042;-82
2023/07/23 12:17:31;;;;;;;6.20;5.60;;;;;;;;;;5049361;28;20039;-83
2023/07/23 12:19:57;;;;;;;10.13;7.32;;;;;;;;;;5087365;28;20096;-83
2023/07/23 12:22:24;;;;;;;9.73;7.22;;;;;;;;;;5069556;28;20067;-83
2023/07/23 12:24:50;;;;;;;10.35;6.88;;;;;;;;;;5089261;28;20043;-84
2023/07/23 12:27:17;;;;;;;10.45;7.35;;;;;;;;;;5088531;28;20044;-84
2023/07/23 12:29:48;;;;;;;14.23;8.10;;;;;;;;;;5091368;28;20475;-83
2023/07/23 12:32:15;;;;;;;9.75;7.18;;;;;;;;;;5087573;28;20046;-83
2023/07/23 12:34:45;;;;;;;10.70;6.97;;;;;;;;;;5089815;28;20036;-82
2023/07/23 12:37:11;;;;;;;8.90;7.22;;;;;;;;;;5085401;27;20051;-83
2023/07/23 12:39:38;;;;;;;10.40;7.93;;;;;;;;;;5090450;28;21178;-82
2023/07/23 12:42:04;;;;;;;9.18;6.75;;;;;;;;;;5090211;28;21613;-82
2023/07/23 12:44:30;;;;;;;7.70;6.47;;;;;;;;;;5066328;28;20044;-82
2023/07/23 12:46:56;;;;;;;8.55;6.13;;;;;;;;;;5090547;28;20031;-82
2023/07/23 12:49:22;;;;;;;7.57;5.93;;;;;;;;;;5064916;28;20051;-80
2023/07/23 12:51:49;;;;;;;8.50;6.75;;;;;;;;;;5092031;27;20039;-78
2023/07/23 12:54:15;;;;;;;8.30;6.47;;;;;;;;;;5068407;28;20047;-81
2023/07/23 12:56:47;;;;;;;8.48;6.20;;;;;;;;;;5084939;28;20108;-81
2023/07/23 12:59:13;;;;;;;7.50;5.85;;;;;;;;;;5079551;27;20536;-80
2023/07/23 13:01:48;;;;;;;7.80;5.93;;;;;;;;;;5079503;28;20113;-82
2023/07/23 13:04:14;;;;;;;6.65;5.93;;;;;;;;;;5080239;28;20085;-81
2023/07/23 13:06:40;;;;;;;7.57;6.60;;;;;;;;;;5081855;28;20409;-80
2023/07/23 13:09:06;;;;;;;8.20;6.75;;;;;;;;;;5081612;28;20039;-80
2023/07/23 13:11:33;;;;;;;8.75;6.28;;;;;;;;;;5078994;27;20099;-80
2023/07/23 13:13:59;;;;;;;8.43;6.18;;;;;;;;;;5049111;28;20589;-83
2023/07/23 13:16:25;;;;;;;8.10;6.70;;;;;;;;;;5083008;27;20044;-83
2023/07/23 13:18:53;;;;;;;7.78;6.35;;;;;;;;;;5068098;28;20582;-84
2023/07/23 13:21:23;;;;;;;7.38;6.13;;;;;;;;;;5080322;28;20047;-82
2023/07/23 13:23:49;;;;;;;7.70;6.25;;;;;;;;;;5082332;28;20051;-84
2023/07/23 13:26:15;;;;;;;13.50;6.57;;;;;;;;;;5076831;27;20043;-81
2023/07/23 13:28:41;;;;;;;5.95;5.25;;;;;;;;;;5079046;27;20126;-81
2023/07/23 13:31:07;;;;;;;6.82;5.30;;;;;;;;;;5080449;28;20166;-81
2023/07/23 13:33:35;;;;;;;7.45;5.72;;;;;;;;;;5043470;28;20039;-81
2023/07/23 13:36:01;;;;;;;6.25;5.60;;;;;;;;;;5080171;28;20853;-80
2023/07/23 13:38:27;;;;;;;6.10;5.22;;;;;;;;;;5065086;28;20063;-80
2023/07/23 13:40:53;;;;;;;8.25;6.25;;;;;;;;;;5082163;28;20101;-82
2023/07/23 13:43:19;;;;;;;8.30;5.78;;;;;;;;;;5079265;28;21812;-81
2023/07/23 13:45:45;;;;;;;10.15;7.70;;;;;;;;;;5096893;27;20035;-81
2023/07/23 13:48:11;;;;;;;8.52;7.15;;;;;;;;;;5077928;28;20156;-81
2023/07/23 13:50:40;;;;;;;12.45;8.50;;;;;;;;;;5096855;27;20112;-81
2023/07/23 13:53:08;;;;;;;13.38;9.20;;;;;;;;;;5080019;28;20403;-80
2023/07/23 13:55:34;;;;;;;12.15;9.55;;;;;;;;;;5096322;27;20051;-83
2023/07/23 13:58:00;;;;;;;14.70;10.48;;;;;;;;;;5077632;28;20059;-82
2023/07/23 14:00:27;;;;;;;14.15;10.00;;;;;;;;;;5057633;28;20391;-82
2023/07/23 14:02:54;;;;;;;13.20;10.48;;;;;;;;;;5080849;28;20058;-81
2023/07/23 14:05:25;;;;;;;12.27;10.00;;;;;;;;;;5061060;28;20150;-82
2023/07/23 14:07:51;;;;;;;16.88;11.35;;;;;;;;;;5082020;28;20051;-82
2023/07/23 14:10:17;;;;;;;15.07;10.75;;;;;;;;;;5081570;28;20106;-81
2023/07/23 14:12:44;;;;;;;12.57;10.07;;;;;;;;;;5079357;28;20082;-82
2023/07/23 14:15:10;;;;;;;15.45;9.95;;;;;;;;;;5081896;28;20380;-83
2023/07/23 14:17:36;;;;;;;11.23;9.20;;;;;;;;;;5078379;28;20038;-84
2023/07/23 14:20:04;;;;;;;11.65;8.07;;;;;;;;;;5082643;28;20043;-83
2023/07/23 14:22:30;;;;;;;16.13;9.40;;;;;;;;;;5080008;28;20048;-83